Time;durP1;ratioP1;P1;durP2;ratioP2;P2;SDS_P1;SDS_P2;PMS_P1;PMS_P2;Temp;Humidity;BMP_temperature;BMP_pressure;BME280_temperature;BME280_humidity;BME280_pressure;Samples;Min_cycle;Max_cycle;Signal;HPM_P1;HPM_P2
2022/11/05 00:10:39;;;;;;;2.97;1.70;;;;;;;18.57;55.92;101413.00;5139429;28;20095;-42
2022/11/05 00:18:35;;;;;;;1.88;1.55;;;;;;;18.55;55.42;101414.97;5136224;28;20061;-44
2022/11/05 00:21:00;;;;;;;1.83;1.50;;;;;;;18.29;55.60;101375.34;5128092;28;20020;-42
2022/11/05 00:26:10;;;;;;;2.40;1.90;;;;;;;18.50;56.03;101415.44;5138138;28;20027;-43
2022/11/05 00:28:36;;;;;;;2.17;1.67;;;;;;;18.49;55.49;101420.00;5123237;28;20042;-44
2022/11/05 00:31:04;;;;;;;3.72;2.40;;;;;;;18.52;56.05;101420.66;5123326;28;20019;-49
2022/11/05 00:33:30;;;;;;;2.20;1.60;;;;;;;18.51;55.77;101417.13;5123379;28;20077;-44
2022/11/05 00:35:55;;;;;;;2.70;1.60;;;;;;;18.51;55.65;101416.28;5135163;28;20030;-42
2022/11/05 00:38:20;;;;;;;2.45;1.70;;;;;;;18.49;55.41;101411.91;5128253;28;20026;-44
2022/11/05 00:40:45;;;;;;;1.75;1.48;;;;;;;18.49;55.68;101413.75;5136375;28;20035;-42
2022/11/05 00:45:55;;;;;;;2.28;1.30;;;;;;;18.40;55.56;101401.22;5122828;28;20051;-44
2022/11/05 00:51:05;;;;;;;2.78;1.50;;;;;;;18.47;55.70;101424.66;5137266;28;20053;-42
2022/11/05 00:53:30;;;;;;;2.42;1.23;;;;;;;18.46;55.47;101428.38;5129192;27;20027;-42
2022/11/05 00:55:55;;;;;;;1.65;1.25;;;;;;;18.40;55.53;101425.47;5135275;28;20027;-43
2022/11/05 00:58:21;;;;;;;2.03;1.60;;;;;;;18.47;55.56;101439.97;5128950;27;20015;-43
2022/11/05 01:00:49;;;;;;;2.13;1.92;;;;;;;18.45;55.40;101432.06;5134158;27;20062;-46
2022/11/05 01:03:16;;;;;;;1.50;1.40;;;;;;;18.43;55.84;101428.66;5137549;28;20114;-42
2022/11/05 01:05:46;;;;;;;1.98;1.52;;;;;;;18.42;55.72;101435.06;5126759;28;20058;-42
2022/11/05 01:08:13;;;;;;;2.08;1.40;;;;;;;18.44;55.95;101440.31;5134129;28;20027;-42
2022/11/05 01:10:46;;;;;;;1.77;1.35;;;;;;;18.41;55.80;101433.38;5131291;27;20429;-45
2022/11/05 01:13:12;;;;;;;2.53;1.50;;;;;;;18.42;55.74;101443.13;5137818;27;20022;-43
2022/11/05 01:15:37;;;;;;;1.38;1.27;;;;;;;18.41;55.51;101438.75;5140968;27;20031;-42
2022/11/05 01:18:03;;;;;;;2.10;1.60;;;;;;;18.41;55.47;101441.44;5134262;27;20022;-43
2022/11/05 01:20:28;;;;;;;1.25;1.15;;;;;;;18.41;55.70;101444.13;5138665;27;20037;-44
2022/11/05 01:22:54;;;;;;;1.92;1.60;;;;;;;18.35;55.71;101436.69;5141057;27;20062;-43
2022/11/05 01:25:19;;;;;;;2.45;1.60;;;;;;;18.38;55.75;101433.66;5138418;27;20044;-44
2022/11/05 01:27:44;;;;;;;1.67;1.40;;;;;;;18.39;55.86;101442.59;5128455;27;20028;-43
2022/11/05 01:30:10;;;;;;;2.22;1.67;;;;;;;18.37;55.29;101436.53;5136147;27;20046;-42
2022/11/05 01:32:36;;;;;;;3.15;1.73;;;;;;;18.36;55.65;101445.59;5132111;27;20086;-42
2022/11/05 01:35:03;;;;;;;2.13;1.42;;;;;;;18.34;55.57;101453.81;5139445;27;20015;-43
2022/11/05 01:37:28;;;;;;;2.50;1.67;;;;;;;18.35;55.75;101450.16;5126330;28;20024;-42
2022/11/05 01:39:54;;;;;;;1.55;1.40;;;;;;;18.34;55.84;101453.81;5140526;27;20483;-42
2022/11/05 01:42:22;;;;;;;3.10;1.23;;;;;;;18.34;55.65;101444.88;5138256;27;20035;-41
2022/11/05 01:45:05;;;;;;;1.63;1.40;;;;;;;18.33;55.64;101449.44;5131764;27;20475;-44
2022/11/05 01:47:48;;;;;;;2.20;1.50;;;;;;;18.32;55.66;101450.44;5092967;28;20055;-45
2022/11/05 01:50:23;;;;;;;2.72;1.50;;;;;;;18.24;55.33;101442.28;5091846;28;20028;-43
2022/11/05 01:52:51;;;;;;;1.73;1.42;;;;;;;18.31;55.34;101447.88;5101217;28;20028;-43
2022/11/05 01:55:20;;;;;;;1.83;1.42;;;;;;;18.30;55.34;101448.88;5091492;28;20123;-43
2022/11/05 01:57:46;;;;;;;1.75;1.35;;;;;;;18.25;55.43;101449.34;5107943;28;20032;-41
2022/11/05 02:00:12;;;;;;;1.65;1.30;;;;;;;18.29;55.49;101452.56;5102675;28;20077;-42
2022/11/05 02:02:37;;;;;;;1.85;1.30;;;;;;;18.27;55.30;101452.75;5094247;28;20024;-43
2022/11/05 02:05:04;;;;;;;2.53;1.50;;;;;;;18.28;55.69;101457.13;5100027;28;20377;-44
2022/11/05 02:07:30;;;;;;;1.50;1.40;;;;;;;18.26;55.63;101458.25;5090831;28;20024;-42
2022/11/05 02:10:16;;;;;;;3.28;1.85;;;;;;;18.21;55.14;101443.41;5093210;28;20059;-43
2022/11/05 02:12:45;;;;;;;1.45;1.35;;;;;;;18.25;55.50;101460.09;5099594;28;20036;-42
2022/11/05 02:15:16;;;;;;;2.00;1.40;;;;;;;18.25;55.59;101460.09;5096529;28;20032;-42
2022/11/05 02:17:53;;;;;;;2.35;1.40;;;;;;;18.24;55.23;101459.25;5090687;28;20016;-44
2022/11/05 02:20:43;;;;;;;2.45;1.50;;;;;;;18.23;55.45;101459.44;5082981;28;20044;-43
2022/11/05 02:23:35;;;;;;;2.10;1.45;;;;;;;18.22;55.48;101460.41;5089192;28;20032;-42
2022/11/05 02:26:32;;;;;;;1.38;1.27;;;;;;;18.20;55.42;101463.25;5097191;28;20533;-43
2022/11/05 02:29:18;;;;;;;1.60;1.45;;;;;;;18.21;55.47;101456.88;5087353;28;20080;-42
2022/11/05 02:32:06;;;;;;;1.40;1.20;;;;;;;18.19;55.10;101441.88;5091032;28;20036;-45
2022/11/05 02:34:54;;;;;;;1.65;1.52;;;;;;;18.19;55.55;101455.34;5101548;28;20074;-42
2022/11/05 02:37:25;;;;;;;1.40;1.30;;;;;;;18.18;55.24;101456.31;5101058;28;20035;-42
2022/11/05 02:39:55;;;;;;;1.38;1.27;;;;;;;18.16;55.24;101445.72;5103523;28;20016;-43
2022/11/05 02:42:36;;;;;;;1.50;1.40;;;;;;;18.16;55.36;101443.00;5103362;28;20455;-42
2022/11/05 02:45:20;;;;;;;2.05;1.50;;;;;;;18.16;55.48;101440.31;5085546;28;20051;-42
2022/11/05 02:47:55;;;;;;;1.42;1.20;;;;;;;18.16;55.63;101437.63;5128935;27;20030;-41
2022/11/05 02:50:30;;;;;;;1.63;1.50;;;;;;;18.16;55.36;101442.19;5132437;27;20027;-43
2022/11/05 02:53:07;;;;;;;1.75;1.40;;;;;;;18.15;55.32;101437.81;5134350;27;20063;-42
2022/11/05 02:55:36;;;;;;;1.98;1.48;;;;;;;18.14;55.19;101438.81;5137050;27;20056;-42
2022/11/05 02:58:03;;;;;;;2.25;1.45;;;;;;;18.11;55.26;101434.56;5136486;27;20027;-43
2022/11/05 03:00:40;;;;;;;1.40;1.30;;;;;;;18.13;55.17;101426.31;5138329;27;20111;-43
2022/11/05 03:03:13;;;;;;;1.65;1.52;;;;;;;18.13;55.42;101426.31;5124543;28;20030;-41
2022/11/05 03:05:50;;;;;;;2.13;1.42;;;;;;;18.03;55.51;101407.56;5122830;28;20062;-45
2022/11/05 03:08:26;;;;;;;2.15;1.30;;;;;;;18.12;55.54;101424.63;5124768;28;20024;-43
2022/11/05 03:10:57;;;;;;;1.58;1.48;;;;;;;18.11;55.53;101422.94;5123417;28;20111;-44
2022/11/05 03:13:32;;;;;;;1.52;1.30;;;;;;;18.11;55.21;101422.94;5137696;27;20031;-42
2022/11/05 03:16:01;;;;;;;2.20;1.60;;;;;;;18.04;55.25;101413.78;5123272;28;20016;-42
2022/11/05 03:18:46;;;;;;;1.73;1.25;;;;;;;18.02;55.49;101410.41;5123802;27;20464;-41
2022/11/05 03:21:19;;;;;;;2.05;1.33;;;;;;;18.08;55.62;101424.09;5130593;27;20023;-42
2022/11/05 03:23:52;;;;;;;1.70;1.42;;;;;;;18.04;55.38;101414.63;5142090;27;20063;-41
2022/11/05 03:26:22;;;;;;;1.88;1.50;;;;;;;18.08;55.56;101426.78;5131386;27;20369;-41
2022/11/05 03:28:55;;;;;;;1.73;1.55;;;;;;;18.08;55.29;101428.63;5129332;27;20095;-42
2022/11/05 03:31:21;;;;;;;1.63;1.40;;;;;;;18.04;55.12;101422.69;5143531;27;20391;-42
2022/11/05 03:33:47;;;;;;;1.63;1.30;;;;;;;18.06;55.22;101431.47;5131290;27;20039;-43
2022/11/05 03:36:26;;;;;;;2.40;1.35;;;;;;;18.07;55.04;101437.69;5136703;27;20022;-42
2022/11/05 03:38:52;;;;;;;1.33;1.05;;;;;;;18.03;55.16;101433.63;5135820;27;20031;-43
2022/11/05 03:41:19;;;;;;;2.25;1.45;;;;;;;18.06;55.08;101447.63;5128562;27;20049;-43
2022/11/05 03:43:49;;;;;;;1.80;1.60;;;;;;;18.06;55.33;101449.47;5132911;27;20034;-43
2022/11/05 03:46:19;;;;;;;1.88;1.40;;;;;;;18.04;54.98;101451.44;5136372;27;20031;-43
2022/11/05 03:48:48;;;;;;;1.40;1.30;;;;;;;18.04;55.17;101452.28;5132412;27;20023;-43
2022/11/05 03:51:21;;;;;;;1.45;1.13;;;;;;;18.04;55.21;101452.28;5128787;27;20032;-43
2022/11/05 03:53:49;;;;;;;1.63;1.52;;;;;;;18.04;55.07;101456.81;5134750;27;20054;-43
2022/11/05 03:56:29;;;;;;;1.73;1.40;;;;;;;18.03;55.11;101457.84;5138398;28;20019;-43
2022/11/05 03:58:55;;;;;;;1.70;1.40;;;;;;;18.03;55.19;101465.91;5135309;27;20022;-43
2022/11/05 04:01:21;;;;;;;1.35;1.25;;;;;;;18.03;54.93;101461.38;5136734;28;20475;-44
2022/11/05 04:03:46;;;;;;;1.65;1.25;;;;;;;18.03;55.16;101457.84;5122129;28;20034;-42
2022/11/05 04:14:25;;;;;;;1.98;1.55;;;;;;;17.95;54.86;101447.81;5134201;28;20031;-43
2022/11/05 04:17:06;;;;;;;1.23;1.10;;;;;;;18.01;55.09;101462.50;5124948;28;20016;-45
2022/11/05 04:25:13;;;;;;;1.50;1.40;;;;;;;17.99;55.27;101460.81;5138532;28;20515;-41
2022/11/05 04:27:38;;;;;;;1.48;1.35;;;;;;;17.99;54.89;101460.81;5130126;28;20510;-40
2022/11/05 04:30:20;;;;;;;1.35;1.10;;;;;;;17.98;54.98;101461.81;5136820;27;20042;-42
2022/11/05 04:33:05;;;;;;;2.17;1.23;;;;;;;17.98;54.96;101456.44;5130176;28;20037;-42
2022/11/05 04:35:35;;;;;;;2.00;1.50;;;;;;;17.99;54.82;101460.81;5141745;27;20027;-41
2022/11/05 04:38:01;;;;;;;1.58;1.10;;;;;;;17.99;54.87;101462.66;5130866;28;20027;-42
2022/11/05 04:40:27;;;;;;;1.30;1.15;;;;;;;17.98;54.67;101464.50;5129204;27;20406;-41
2022/11/05 04:42:56;;;;;;;1.83;1.35;;;;;;;17.97;54.97;101456.59;5136602;28;20031;-42
2022/11/05 04:45:22;;;;;;;1.77;1.30;;;;;;;17.97;54.90;101461.97;5138050;27;20054;-41
2022/11/05 04:47:48;;;;;;;1.52;1.20;;;;;;;17.99;55.13;101471.56;5133126;27;20046;-44
2022/11/05 04:50:13;;;;;;;1.25;1.15;;;;;;;17.90;54.89;101450.09;5136539;27;20031;-43
2022/11/05 04:52:39;;;;;;;1.50;1.38;;;;;;;17.98;54.98;101467.19;5141934;27;20055;-43
2022/11/05 04:55:04;;;;;;;0.90;0.90;;;;;;;17.99;54.85;101473.41;5136183;27;20054;-41
2022/11/05 04:57:30;;;;;;;1.90;1.20;;;;;;;17.99;55.10;101474.25;5143056;27;20022;-41
2022/11/05 04:59:55;;;;;;;1.50;1.20;;;;;;;17.99;54.83;101478.81;5133094;27;20031;-43
2022/11/05 05:02:20;;;;;;;1.20;1.10;;;;;;;17.99;54.87;101487.72;5138466;27;20063;-44
2022/11/05 05:04:46;;;;;;;1.98;1.27;;;;;;;17.99;55.20;101478.81;5141300;27;20035;-41
2022/11/05 05:07:11;;;;;;;2.75;1.30;;;;;;;17.98;55.09;101480.66;5129992;27;20027;-42
2022/11/05 05:09:36;;;;;;;1.20;1.10;;;;;;;17.99;54.88;101473.41;5127084;27;20039;-42
2022/11/05 05:12:02;;;;;;;1.45;1.20;;;;;;;17.95;55.06;101475.56;5126902;28;20019;-44
2022/11/05 05:14:27;;;;;;;1.00;1.00;;;;;;;17.98;54.95;101486.03;5126463;28;20023;-42
2022/11/05 05:16:52;;;;;;;1.65;1.30;;;;;;;17.95;55.14;101485.47;5140925;27;20011;-42
2022/11/05 05:19:17;;;;;;;2.50;1.10;;;;;;;17.98;54.96;101487.88;5133644;27;20027;-41
2022/11/05 05:21:43;;;;;;;2.15;1.80;;;;;;;17.98;55.05;101494.09;5142366;27;20031;-43
2022/11/05 05:24:13;;;;;;;1.40;1.17;;;;;;;17.96;55.05;101496.06;5141314;27;20020;-45
2022/11/05 05:26:41;;;;;;;1.52;1.25;;;;;;;17.97;55.05;101491.56;5139420;27;20456;-43
2022/11/05 05:29:07;;;;;;;1.10;1.00;;;;;;;17.96;54.76;101498.75;5132477;27;20023;-43
2022/11/05 05:31:33;;;;;;;2.15;1.50;;;;;;;17.95;54.80;101488.16;5135132;27;20035;-41
2022/11/05 05:33:58;;;;;;;1.70;1.00;;;;;;;17.97;54.99;101494.25;5129091;27;20467;-43
2022/11/05 05:36:24;;;;;;;1.55;1.20;;;;;;;17.96;54.84;101496.06;5131126;27;20032;-42
2022/11/05 05:38:49;;;;;;;2.17;1.20;;;;;;;17.97;54.92;101497.78;5127183;27;20028;-41
2022/11/05 05:41:15;;;;;;;1.20;1.08;;;;;;;17.97;54.89;101495.09;5126805;27;20068;-45
2022/11/05 05:43:40;;;;;;;1.23;1.10;;;;;;;17.97;54.98;101492.41;5129418;27;20018;-42
2022/11/05 05:46:07;;;;;;;2.05;1.40;;;;;;;17.97;55.10;101496.94;5132584;27;20044;-41
2022/11/05 05:48:33;;;;;;;1.33;1.23;;;;;;;17.97;54.84;101492.41;5127990;27;20031;-44
2022/11/05 05:51:03;;;;;;;1.95;1.30;;;;;;;17.97;54.80;101496.94;5125628;27;20053;-42
2022/11/05 05:53:29;;;;;;;0.90;0.90;;;;;;;17.98;54.81;101495.94;5128283;27;20019;-42
2022/11/05 05:55:55;;;;;;;1.45;1.20;;;;;;;17.97;54.95;101503.19;5128519;27;20019;-42
2022/11/05 05:58:21;;;;;;;1.30;1.20;;;;;;;17.98;54.92;101501.31;5126866;27;20051;-43
2022/11/05 06:00:46;;;;;;;1.30;1.20;;;;;;;17.96;55.19;101498.75;5125212;28;20051;-42
2022/11/05 06:03:12;;;;;;;1.20;1.10;;;;;;;17.98;55.10;101504.88;5129696;27;20023;-42
2022/11/05 06:05:37;;;;;;;1.73;1.30;;;;;;;17.99;55.01;101505.72;5130123;27;20035;-43
2022/11/05 06:08:02;;;;;;;2.80;1.00;;;;;;;17.99;54.81;101506.56;5130947;27;20110;-43
2022/11/05 06:10:28;;;;;;;1.52;1.10;;;;;;;17.99;54.91;101505.72;5140913;27;20027;-45
2022/11/05 06:12:53;;;;;;;1.83;1.13;;;;;;;18.01;55.20;101508.25;5126114;27;20364;-42
2022/11/05 06:15:19;;;;;;;1.33;1.15;;;;;;;17.97;55.21;101500.47;5129306;27;20020;-42
2022/11/05 06:17:44;;;;;;;2.63;1.02;;;;;;;18.01;55.35;101505.56;5127320;27;20020;-43
2022/11/05 06:20:10;;;;;;;2.00;1.10;;;;;;;18.01;55.35;101503.72;5124696;27;20027;-47
2022/11/05 06:22:36;;;;;;;1.40;1.05;;;;;;;18.02;55.32;101509.97;5137703;27;20028;-42
2022/11/05 06:25:01;;;;;;;3.38;1.20;;;;;;;18.03;55.33;101511.66;5126571;27;20047;-46
2022/11/05 06:27:28;;;;;;;1.80;0.93;;;;;;;18.03;55.35;101507.09;5127705;27;20106;-42
2022/11/05 06:29:53;;;;;;;1.83;1.15;;;;;;;18.02;55.42;101516.19;5130770;27;20031;-42
2022/11/05 06:32:18;;;;;;;2.30;1.42;;;;;;;18.03;55.50;101514.34;5139362;27;20023;-45
2022/11/05 06:34:44;;;;;;;1.30;1.10;;;;;;;18.01;55.24;101510.94;5140634;27;20540;-42
2022/11/05 06:37:09;;;;;;;1.42;1.10;;;;;;;18.05;55.33;101512.34;5126605;27;20110;-43
2022/11/05 06:39:34;;;;;;;2.38;1.10;;;;;;;18.04;55.48;101513.34;5141049;27;20039;-43
2022/11/05 06:41:59;;;;;;;3.47;1.30;;;;;;;18.01;55.63;101519.00;5134124;27;20044;-44
2022/11/05 06:44:24;;;;;;;3.33;1.20;;;;;;;18.05;55.44;101520.41;5129823;27;20043;-42
2022/11/05 06:46:50;;;;;;;1.90;1.27;;;;;;;18.07;55.36;101526.50;5129045;27;20047;-44
2022/11/05 06:49:15;;;;;;;1.60;1.30;;;;;;;18.07;55.65;101531.88;5131450;27;20049;-43
2022/11/05 06:51:40;;;;;;;1.70;1.35;;;;;;;18.07;55.62;101530.03;5126737;27;20023;-45
2022/11/05 06:54:07;;;;;;;2.63;1.17;;;;;;;18.09;55.43;101535.25;5129267;27;20016;-44
2022/11/05 06:56:32;;;;;;;2.33;1.08;;;;;;;18.08;55.47;101531.72;5128489;27;20792;-43
2022/11/05 06:58:57;;;;;;;1.10;0.93;;;;;;;18.10;55.49;101536.97;5126607;27;20052;-44
2022/11/05 07:01:23;;;;;;;1.67;1.40;;;;;;;18.10;55.68;101537.81;5130328;27;20036;-47
2022/11/05 07:03:48;;;;;;;1.73;1.20;;;;;;;18.11;55.46;101541.34;5128488;27;20027;-45
2022/11/05 07:06:13;;;;;;;1.33;0.95;;;;;;;18.11;55.53;101542.19;5126669;27;20072;-46
2022/11/05 07:08:39;;;;;;;1.88;1.13;;;;;;;18.10;55.54;101539.66;5129168;27;20031;-43
2022/11/05 07:11:04;;;;;;;1.65;1.30;;;;;;;18.13;55.60;101548.28;5133970;27;20027;-44
2022/11/05 07:13:30;;;;;;;1.65;1.05;;;;;;;18.06;55.56;101533.72;5133450;27;20056;-46
2022/11/05 07:15:55;;;;;;;2.47;1.17;;;;;;;18.15;55.38;101556.22;5126795;27;20022;-44
2022/11/05 07:18:21;;;;;;;1.13;1.00;;;;;;;18.17;55.42;101555.03;5126735;27;20118;-45
2022/11/05 07:20:47;;;;;;;1.85;1.00;;;;;;;18.19;55.23;101546.84;5129827;27;20059;-45
2022/11/05 07:23:13;;;;;;;1.63;1.20;;;;;;;18.19;55.27;101557.63;5126872;27;20023;-46
2022/11/05 07:25:39;;;;;;;1.40;1.10;;;;;;;18.20;55.23;101562.84;5126840;27;20074;-45
2022/11/05 07:28:05;;;;;;;1.30;0.98;;;;;;;18.20;55.39;101562.00;5126742;27;20047;-44
2022/11/05 07:30:31;;;;;;;1.75;1.15;;;;;;;18.23;55.34;101572.47;5127016;27;20027;-43
2022/11/05 07:32:56;;;;;;;1.33;1.10;;;;;;;18.13;55.25;101547.41;5122879;28;20174;-45
2022/11/05 07:35:22;;;;;;;1.77;1.30;;;;;;;18.26;55.18;101558.69;5124774;28;20050;-46
2022/11/05 07:37:49;;;;;;;1.85;1.10;;;;;;;18.26;55.37;101557.84;5124418;27;20008;-43
2022/11/05 07:40:19;;;;;;;1.83;1.17;;;;;;;18.27;55.10;101568.50;5124083;28;20047;-43
2022/11/05 07:42:47;;;;;;;3.13;1.13;;;;;;;18.20;55.45;101549.38;5125100;28;20015;-44
2022/11/05 07:45:12;;;;;;;1.05;0.93;;;;;;;18.28;54.94;101570.19;5124027;27;20099;-45
2022/11/05 07:47:38;;;;;;;1.67;1.10;;;;;;;18.29;55.00;101566.47;5124424;28;20482;-43
2022/11/05 07:50:05;;;;;;;0.95;0.80;;;;;;;18.34;55.18;101574.09;5122960;28;20057;-44
2022/11/05 07:52:33;;;;;;;3.13;1.00;;;;;;;18.40;54.88;101576.22;5124390;27;20052;-43
2022/11/05 07:54:58;;;;;;;1.97;1.03;;;;;;;18.48;54.80;101574.47;5124545;28;20069;-46
2022/11/05 07:57:23;;;;;;;1.10;1.00;;;;;;;18.48;54.40;101566.41;5133624;28;20034;-45
2022/11/05 07:59:48;;;;;;;2.08;0.90;;;;;;;18.62;54.30;101583.06;5129823;27;20023;-46
2022/11/05 08:02:14;;;;;;;1.10;0.95;;;;;;;18.66;54.42;101579.06;5136255;28;20038;-44
2022/11/05 08:04:41;;;;;;;1.30;1.08;;;;;;;18.68;54.17;101568.97;5123417;28;20076;-45
2022/11/05 08:07:06;;;;;;;2.45;1.08;;;;;;;18.67;54.16;101556.50;5123723;28;20015;-44
2022/11/05 08:09:32;;;;;;;1.73;1.17;;;;;;;18.53;54.03;101530.94;5132007;28;20029;-43
2022/11/05 08:11:57;;;;;;;1.88;1.00;;;;;;;18.79;53.88;101576.88;5135094;28;20020;-44
2022/11/05 08:14:22;;;;;;;2.00;1.20;;;;;;;18.81;53.59;101582.94;5133521;28;20022;-42
2022/11/05 08:16:47;;;;;;;1.40;1.05;;;;;;;18.82;53.59;101584.66;5127893;28;20034;-44
2022/11/05 08:19:13;;;;;;;0.85;0.80;;;;;;;18.83;53.85;101572.03;5124921;28;20031;-43
2022/11/05 08:21:38;;;;;;;1.70;1.00;;;;;;;18.85;53.42;101578.13;5136065;27;20030;-42
2022/11/05 08:24:03;;;;;;;2.08;1.00;;;;;;;18.85;53.98;101576.25;5142958;27;20110;-46
2022/11/05 08:26:28;;;;;;;2.08;0.80;;;;;;;18.87;53.44;101568.88;5126973;28;20032;-43
2022/11/05 08:28:54;;;;;;;1.08;0.85;;;;;;;18.90;53.52;101570.41;5134331;27;20027;-42
2022/11/05 08:31:19;;;;;;;0.90;0.82;;;;;;;18.90;53.58;101573.97;5136261;27;20110;-44
2022/11/05 08:33:44;;;;;;;1.80;1.23;;;;;;;18.92;53.64;101566.56;5141403;27;20575;-45
2022/11/05 08:36:10;;;;;;;1.08;0.88;;;;;;;18.97;53.55;101569.66;5136290;27;20034;-43
2022/11/05 08:38:35;;;;;;;2.20;1.00;;;;;;;19.01;53.48;101577.44;5134627;27;20062;-44
2022/11/05 08:41:00;;;;;;;1.58;1.00;;;;;;;19.03;53.46;101576.31;5142005;27;20025;-45
2022/11/05 08:43:25;;;;;;;1.25;0.90;;;;;;;19.03;53.12;101567.34;5136446;27;20027;-43
2022/11/05 08:45:51;;;;;;;1.38;0.93;;;;;;;19.07;52.95;101566.03;5136227;27;20178;-44
2022/11/05 08:48:18;;;;;;;1.73;0.90;;;;;;;19.13;52.69;101578.91;5138704;27;20057;-44
2022/11/05 08:50:44;;;;;;;2.55;1.70;;;;;;;19.18;52.92;101574.75;5140923;27;20031;-46
2022/11/05 08:53:10;;;;;;;2.42;0.63;;;;;;;19.19;52.71;101576.44;5129866;27;20031;-48
2022/11/05 08:55:37;;;;;;;1.45;1.10;;;;;;;19.18;53.00;101577.44;5139413;27;20048;-48
2022/11/05 08:58:06;;;;;;;0.90;0.80;;;;;;;19.15;52.62;101579.59;5129800;27;20182;-42
2022/11/05 09:00:34;;;;;;;1.00;0.90;;;;;;;19.16;52.96;101579.47;5135275;27;20057;-48
2022/11/05 09:03:03;;;;;;;1.10;0.80;;;;;;;19.19;52.87;101583.69;5133218;27;20036;-44
2022/11/05 09:05:29;;;;;;;1.95;0.90;;;;;;;19.21;52.49;101584.38;5133677;27;20031;-43
2022/11/05 09:07:55;;;;;;;1.95;0.80;;;;;;;19.21;52.77;101573.59;5133926;27;20078;-41
2022/11/05 09:10:20;;;;;;;0.82;0.75;;;;;;;19.24;52.61;101573.28;5141289;27;20028;-47
2022/11/05 09:12:45;;;;;;;2.08;0.80;;;;;;;19.23;52.26;101576.97;5137162;27;20038;-42
2022/11/05 09:15:11;;;;;;;1.73;0.80;;;;;;;19.27;52.37;101570.28;5132730;27;20036;-46
2022/11/05 09:17:36;;;;;;;1.35;0.95;;;;;;;19.14;52.44;101549.09;5138402;27;20023;-43
2022/11/05 09:20:03;;;;;;;1.30;0.80;;;;;;;19.23;52.45;101569.72;5140724;27;20083;-43
2022/11/05 09:22:28;;;;;;;1.05;0.73;;;;;;;19.26;52.37;101573.97;5139249;27;20111;-44
2022/11/05 09:24:53;;;;;;;1.35;0.80;;;;;;;19.26;52.57;101570.44;5141823;27;20050;-42
2022/11/05 09:27:19;;;;;;;1.55;0.90;;;;;;;19.22;52.39;101576.13;5127802;27;20027;-41
2022/11/05 09:29:44;;;;;;;2.65;1.10;;;;;;;19.23;52.67;101577.81;5136294;27;20054;-45
2022/11/05 09:32:09;;;;;;;0.82;0.80;;;;;;;19.22;52.27;101578.84;5129608;27;20035;-47
2022/11/05 09:34:35;;;;;;;1.45;1.02;;;;;;;19.22;52.68;101575.28;5126345;28;20031;-42
2022/11/05 09:37:01;;;;;;;1.73;1.17;;;;;;;19.21;52.53;101577.16;5125951;28;20508;-44
2022/11/05 09:39:26;;;;;;;1.33;1.02;;;;;;;19.20;52.77;101578.16;5132369;27;20040;-42
2022/11/05 09:41:52;;;;;;;1.27;1.00;;;;;;;19.19;52.57;101587.22;5134239;27;20058;-42
2022/11/05 09:44:24;;;;;;;0.93;0.80;;;;;;;19.17;52.85;101589.22;5139556;27;20019;-42
2022/11/05 09:46:54;;;;;;;1.48;1.10;;;;;;;19.01;52.47;101555.88;5135415;27;20043;-42
2022/11/05 09:49:28;;;;;;;0.90;0.75;;;;;;;19.16;52.75;101592.94;5130547;27;20087;-41
2022/11/05 09:51:54;;;;;;;1.63;1.38;;;;;;;19.16;52.70;101592.94;5135936;27;20015;-42
2022/11/05 09:54:28;;;;;;;1.13;0.85;;;;;;;19.16;52.98;101592.09;5125136;27;20032;-44
2022/11/05 09:56:54;;;;;;;0.98;0.80;;;;;;;19.16;52.39;101602.88;5129980;27;20353;-43
2022/11/05 09:59:29;;;;;;;1.25;1.00;;;;;;;19.15;52.66;101601.16;5136001;27;20095;-41
2022/11/05 10:02:02;;;;;;;1.40;0.93;;;;;;;19.15;52.71;101601.16;5130886;27;20019;-41
2022/11/05 10:04:29;;;;;;;1.48;0.85;;;;;;;19.19;52.53;101605.25;5132331;27;20023;-41
2022/11/05 10:06:58;;;;;;;1.20;0.80;;;;;;;19.08;52.97;101592.84;5140221;27;20016;-42
2022/11/05 10:09:30;;;;;;;0.88;0.85;;;;;;;19.21;52.82;101605.94;5136858;27;20054;-46
2022/11/05 10:12:01;;;;;;;1.70;0.80;;;;;;;19.21;52.50;101611.34;5130088;27;20034;-42
2022/11/05 10:14:30;;;;;;;1.23;1.08;;;;;;;19.15;52.77;101604.69;5145214;27;20027;-44
2022/11/05 10:17:00;;;;;;;1.48;0.80;;;;;;;19.20;52.36;101610.50;5141632;27;20022;-43
2022/11/05 10:19:34;;;;;;;1.58;1.08;;;;;;;19.17;52.79;101601.88;5123934;28;20059;-41
2022/11/05 10:22:08;;;;;;;0.90;0.77;;;;;;;19.20;52.81;101617.75;5137439;27;20036;-42
2022/11/05 10:24:33;;;;;;;1.15;0.82;;;;;;;19.22;52.66;101613.03;5127878;27;20031;-48
2022/11/05 10:26:59;;;;;;;1.17;0.82;;;;;;;19.14;52.78;101602.16;5128691;27;20104;-44
2022/11/05 10:29:29;;;;;;;1.48;1.05;;;;;;;19.23;52.84;101617.41;5126086;27;20105;-45
2022/11/05 10:31:56;;;;;;;1.15;1.05;;;;;;;19.20;52.57;101615.06;5127919;27;20076;-44
2022/11/05 10:34:23;;;;;;;1.77;1.02;;;;;;;19.25;52.72;101617.28;5123133;28;20043;-46
2022/11/05 10:36:48;;;;;;;1.27;0.80;;;;;;;19.26;52.96;101617.13;5127449;27;20060;-43
2022/11/05 10:39:16;;;;;;;1.83;1.20;;;;;;;19.28;52.95;101608.88;5130061;27;20041;-44
2022/11/05 10:41:52;;;;;;;1.65;1.00;;;;;;;19.28;52.70;101617.78;5129445;27;20020;-45
2022/11/05 10:44:41;;;;;;;1.58;0.90;;;;;;;19.30;52.66;101615.81;5135263;27;20023;-46
2022/11/05 10:47:19;;;;;;;;;;;;;;;19.35;52.84;101621.59;5136453;27;20058;-44
2022/11/05 10:50:01;;;;;;;1.23;0.88;;;;;;;19.37;52.79;101610.63;5134255;27;19911;-43
2022/11/05 10:52:55;;;;;;;2.28;1.10;;;;;;;19.38;52.93;101618.59;5134335;27;20031;-41
2022/11/05 10:55:27;;;;;;;2.75;1.13;;;;;;;19.40;52.51;101613.03;5131990;27;20052;-45
2022/11/05 10:57:53;;;;;;;1.17;0.93;;;;;;;19.44;52.67;101606.31;5129414;27;20045;-43
2022/11/05 11:00:20;;;;;;;1.48;0.90;;;;;;;19.47;52.50;101617.66;5130435;27;20031;-44
2022/11/05 11:02:52;;;;;;;1.10;1.00;;;;;;;19.42;52.83;101602.94;5127370;27;20019;-48
2022/11/05 11:05:32;;;;;;;2.20;0.90;;;;;;;19.54;53.05;101608.94;5141325;27;20072;-42
2022/11/05 11:08:18;;;;;;;1.40;0.98;;;;;;;19.56;52.89;101615.03;5141953;27;20019;-44
2022/11/05 11:10:57;;;;;;;1.40;0.77;;;;;;;19.56;52.79;101610.47;5140675;27;20394;-43
2022/11/05 11:13:27;;;;;;;1.40;0.90;;;;;;;19.59;53.07;101606.63;5142862;27;20086;-43
2022/11/05 11:15:53;;;;;;;2.17;0.98;;;;;;;19.55;52.79;101600.69;5140392;27;20569;-44
2022/11/05 11:18:37;;;;;;;1.30;0.80;;;;;;;19.60;52.79;101611.84;5140414;27;20019;-42
2022/11/05 11:21:13;;;;;;;2.90;0.90;;;;;;;19.62;53.04;101617.13;5126519;27;20038;-42
2022/11/05 11:23:40;;;;;;;1.30;1.20;;;;;;;19.63;52.70;101621.53;5129505;27;20027;-47
2022/11/05 11:26:06;;;;;;;1.17;0.80;;;;;;;19.65;52.86;101617.66;5118393;27;20027;-44
2022/11/05 11:28:37;;;;;;;2.55;0.80;;;;;;;19.66;52.69;101610.41;5127127;27;20023;-44
2022/11/05 11:31:07;;;;;;;1.25;0.80;;;;;;;19.68;52.70;101625.44;5132453;27;20019;-45
2022/11/05 11:33:33;;;;;;;1.20;0.90;;;;;;;19.70;52.71;101619.88;5135401;27;20035;-42
2022/11/05 11:35:58;;;;;;;1.02;0.80;;;;;;;19.70;52.70;101619.88;5131304;27;20026;-43
2022/11/05 11:38:28;;;;;;;1.13;0.85;;;;;;;19.71;52.93;101621.59;5139307;27;20094;-44
2022/11/05 11:41:21;;;;;;;1.65;0.90;;;;;;;19.70;52.86;101611.78;5129612;27;20019;-45
2022/11/05 11:43:47;;;;;;;1.65;1.00;;;;;;;19.73;53.04;101611.50;5116025;27;20035;-48
2022/11/05 11:46:15;;;;;;;2.50;0.73;;;;;;;19.63;52.86;101602.66;5134716;27;20092;-44
2022/11/05 11:48:44;;;;;;;1.50;0.90;;;;;;;19.75;52.77;101622.13;5132087;27;20041;-42
2022/11/05 11:51:30;;;;;;;1.27;1.00;;;;;;;19.75;52.87;101624.81;5128040;27;20518;-44
2022/11/05 11:53:58;;;;;;;1.55;0.88;;;;;;;19.73;52.90;101609.63;5134198;27;20117;-44
2022/11/05 11:56:23;;;;;;;0.95;0.80;;;;;;;19.77;52.90;101615.56;5129731;28;20055;-45
2022/11/05 11:58:53;;;;;;;2.42;0.82;;;;;;;19.79;52.77;101618.09;5136293;27;20089;-44
2022/11/05 12:01:46;;;;;;;2.33;1.10;;;;;;;19.80;52.82;101623.34;5127093;27;20084;-42
2022/11/05 12:04:31;;;;;;;2.03;1.00;;;;;;;19.81;52.81;101619.66;5132269;28;20069;-44
2022/11/05 12:07:24;;;;;;;1.55;0.70;;;;;;;19.84;52.97;101618.50;5127396;27;20064;-46
2022/11/05 12:10:18;;;;;;;2.25;0.77;;;;;;;19.85;52.72;101614.78;5130113;28;20035;-44